createdAt,value
2023-04-30T00:02:07.485Z,9.32
2023-04-30T00:05:04.854Z,8.98
2023-04-30T00:08:01.669Z,9.30
2023-04-30T00:10:58.509Z,8.82
2023-04-30T00:13:57.076Z,8.77
2023-04-30T00:16:53.930Z,8.93
2023-04-30T00:19:50.866Z,10.00
2023-04-30T00:22:47.689Z,9.85
2023-04-30T00:25:44.558Z,10.13
2023-04-30T00:28:41.444Z,11.20
2023-04-30T00:31:38.509Z,10.48
2023-04-30T00:34:35.443Z,10.98
2023-04-30T00:37:32.629Z,9.90
2023-04-30T00:40:30.217Z,10.40
2023-04-30T00:43:27.275Z,10.35
2023-04-30T00:46:24.181Z,9.65
2023-04-30T00:49:21.162Z,10.57
2023-04-30T00:52:18.036Z,10.98
2023-04-30T00:55:14.955Z,10.93
2023-04-30T00:58:11.894Z,10.73
2023-04-30T01:01:09.071Z,10.57
2023-04-30T01:04:06.282Z,10.25
2023-04-30T01:07:03.442Z,10.45
2023-04-30T01:10:00.825Z,9.93
2023-04-30T01:13:16.096Z,10.43
2023-04-30T01:16:28.037Z,9.30
2023-04-30T01:19:44.916Z,10.35
2023-04-30T01:23:10.981Z,10.65
2023-04-30T01:27:08.772Z,11.07
2023-04-30T01:30:06.529Z,9.95
2023-04-30T01:33:03.965Z,10.43
2023-04-30T01:36:42.458Z,10.07
2023-04-30T01:40:19.890Z,10.05
2023-04-30T01:43:34.026Z,9.95
2023-04-30T01:46:31.550Z,9.98
2023-04-30T01:50:05.957Z,10.00
2023-04-30T01:53:06.809Z,9.13
2023-04-30T01:59:04.051Z,9.00
2023-04-30T02:02:01.352Z,10.20
2023-04-30T02:04:58.206Z,8.75
2023-04-30T02:07:55.414Z,9.32
2023-04-30T02:10:52.284Z,9.43
2023-04-30T02:13:49.108Z,9.80
2023-04-30T02:16:45.970Z,9.20
2023-04-30T02:19:42.789Z,8.95
2023-04-30T02:22:39.626Z,9.13
2023-04-30T02:25:38.642Z,8.50
2023-04-30T02:28:36.167Z,9.18
2023-04-30T02:31:33.104Z,11.07
2023-04-30T02:34:29.955Z,7.35
2023-04-30T02:37:26.874Z,9.45
2023-04-30T02:40:23.739Z,8.65
2023-04-30T02:43:20.606Z,8.48
2023-04-30T02:46:18.541Z,7.70
2023-04-30T02:49:15.468Z,8.32
2023-04-30T02:52:12.273Z,8.50
2023-04-30T02:55:09.446Z,8.68
2023-04-30T02:58:06.258Z,9.00
2023-04-30T03:01:03.368Z,8.40
2023-04-30T03:04:00.299Z,10.18
2023-04-30T03:06:57.102Z,10.05
2023-04-30T03:09:54.106Z,9.70
2023-04-30T03:12:51.172Z,9.55
2023-04-30T03:15:47.997Z,10.43
2023-04-30T03:18:49.057Z,9.50
2023-04-30T03:21:46.472Z,9.85
2023-04-30T03:24:43.316Z,10.60
2023-04-30T03:27:40.116Z,11.43
2023-04-30T03:30:36.927Z,9.90
2023-04-30T03:33:34.220Z,10.43
2023-04-30T03:36:31.352Z,11.35
2023-04-30T03:39:28.261Z,10.82
2023-04-30T03:42:25.050Z,10.65
2023-04-30T03:45:21.861Z,10.75
2023-04-30T03:48:18.730Z,10.32
2023-04-30T03:51:15.609Z,11.15
2023-04-30T03:54:12.487Z,11.40
2023-04-30T03:57:10.698Z,9.80
2023-04-30T04:00:10.095Z,10.43
2023-04-30T04:03:07.512Z,11.80
2023-04-30T04:06:05.449Z,9.63
2023-04-30T04:09:02.535Z,10.43
2023-04-30T04:11:59.351Z,11.93
2023-04-30T04:14:56.257Z,11.63
2023-04-30T04:17:53.133Z,10.90
2023-04-30T04:20:50.004Z,10.65
2023-04-30T04:23:46.973Z,11.05
2023-04-30T04:26:44.239Z,10.18
2023-04-30T04:29:42.178Z,9.95
2023-04-30T04:32:48.203Z,11.25
2023-04-30T04:35:45.091Z,10.32
2023-04-30T04:38:42.352Z,9.30
2023-04-30T04:41:39.689Z,10.80
2023-04-30T04:44:36.522Z,10.30
2023-04-30T04:47:33.485Z,11.02
2023-04-30T04:50:30.705Z,10.50
2023-04-30T04:53:27.589Z,10.63
2023-04-30T04:56:24.578Z,10.65
2023-04-30T04:59:21.678Z,11.10
2023-04-30T05:02:18.719Z,11.88
2023-04-30T05:05:15.744Z,11.13
2023-04-30T05:08:12.784Z,10.60
2023-04-30T05:11:09.729Z,11.45
2023-04-30T05:14:07.142Z,11.50
2023-04-30T05:17:03.983Z,10.93
2023-04-30T05:20:00.992Z,10.88
2023-04-30T05:22:57.899Z,11.52
2023-04-30T05:25:55.340Z,11.55
2023-04-30T05:28:52.552Z,12.18
2023-04-30T05:31:49.804Z,12.00
2023-04-30T05:34:46.634Z,12.13
2023-04-30T05:37:43.491Z,13.98
2023-04-30T05:40:41.012Z,12.75
2023-04-30T05:43:37.827Z,14.43
2023-04-30T05:46:35.445Z,14.77
2023-04-30T05:49:33.705Z,15.75
2023-04-30T05:52:32.742Z,16.27
2023-04-30T05:55:29.581Z,17.13
2023-04-30T05:58:26.423Z,17.52
2023-04-30T06:01:25.379Z,18.42
2023-04-30T06:04:22.507Z,15.80
2023-04-30T06:07:19.300Z,14.55
2023-04-30T06:10:16.201Z,16.13
2023-04-30T06:13:14.764Z,16.52
2023-04-30T06:16:11.782Z,17.40
2023-04-30T06:19:08.828Z,16.77
2023-04-30T06:22:06.237Z,18.42
2023-04-30T06:25:03.555Z,16.50
2023-04-30T06:28:00.470Z,17.52
2023-04-30T06:30:57.981Z,16.67
2023-04-30T06:33:54.907Z,18.27
2023-04-30T06:36:51.745Z,17.60
2023-04-30T06:39:49.342Z,17.05
2023-04-30T06:42:47.612Z,16.92
2023-04-30T06:45:44.697Z,15.60
2023-04-30T06:48:41.838Z,15.75
2023-04-30T06:51:38.676Z,15.40
2023-04-30T06:54:35.514Z,14.25
2023-04-30T06:57:32.452Z,13.73
2023-04-30T07:00:29.468Z,13.82
2023-04-30T07:03:27.330Z,13.88
2023-04-30T07:06:24.273Z,13.98
2023-04-30T07:09:21.160Z,12.90
2023-04-30T07:12:18.317Z,11.18
2023-04-30T07:15:15.195Z,10.68
2023-04-30T07:18:12.306Z,11.75
2023-04-30T07:21:09.285Z,11.07
2023-04-30T07:24:06.257Z,10.48
2023-04-30T07:27:04.014Z,10.13
2023-04-30T07:30:00.878Z,10.07
2023-04-30T07:32:57.776Z,10.93
2023-04-30T07:35:56.601Z,9.05
2023-04-30T07:38:53.568Z,10.02
2023-04-30T07:41:50.523Z,10.45
2023-04-30T07:44:48.875Z,8.70
2023-04-30T07:47:47.571Z,9.23
2023-04-30T07:50:47.163Z,6.85
2023-04-30T07:53:43.980Z,9.05
2023-04-30T07:56:41.869Z,8.07
2023-04-30T07:59:38.680Z,6.13
2023-04-30T08:02:37.389Z,7.13
2023-04-30T08:05:34.370Z,7.60
2023-04-30T08:08:31.196Z,5.70
2023-04-30T08:11:27.989Z,5.22
2023-04-30T08:14:24.904Z,5.72
2023-04-30T08:17:21.820Z,6.00
2023-04-30T08:20:19.176Z,5.22
2023-04-30T08:23:16.945Z,5.90
2023-04-30T08:26:13.784Z,4.60
2023-04-30T08:29:10.821Z,4.85
2023-04-30T08:32:08.973Z,5.20
2023-04-30T08:35:06.880Z,5.03
2023-04-30T08:38:03.744Z,4.43
2023-04-30T08:41:13.070Z,4.78
2023-04-30T08:44:12.147Z,4.10
2023-04-30T08:47:13.270Z,3.95
2023-04-30T08:50:10.393Z,4.20
2023-04-30T08:53:10.903Z,4.38
2023-04-30T08:56:11.355Z,4.07
2023-04-30T08:59:08.268Z,3.17
2023-04-30T09:02:06.078Z,3.25
2023-04-30T09:05:03.517Z,3.05
2023-04-30T09:08:03.783Z,3.85
2023-04-30T09:11:01.429Z,3.00
2023-04-30T09:14:00.822Z,3.08
2023-04-30T09:16:57.773Z,2.67
2023-04-30T09:19:54.750Z,3.20
2023-04-30T09:23:09.777Z,3.38
2023-04-30T09:26:06.723Z,3.30
2023-04-30T09:29:07.996Z,3.10
2023-04-30T09:32:09.871Z,3.55
2023-04-30T09:35:07.049Z,2.90
2023-04-30T09:38:05.596Z,2.97
2023-04-30T09:41:02.704Z,3.25
2023-04-30T09:43:59.588Z,2.25
2023-04-30T09:46:58.734Z,2.38
2023-04-30T09:49:56.176Z,2.45
2023-04-30T09:52:54.162Z,1.92
2023-04-30T09:55:52.176Z,2.03
2023-04-30T09:58:55.135Z,1.90
2023-04-30T10:01:53.263Z,2.10
2023-04-30T10:04:56.436Z,2.00
2023-04-30T10:07:53.642Z,2.10
2023-04-30T10:10:58.246Z,2.00
2023-04-30T10:14:03.528Z,2.20
2023-04-30T10:17:21.130Z,1.90
2023-04-30T10:20:19.022Z,2.03
2023-04-30T10:23:16.487Z,1.98
2023-04-30T10:26:14.254Z,1.65
2023-04-30T10:29:12.993Z,1.60
2023-04-30T10:32:13.065Z,1.25
2023-04-30T10:38:25.223Z,1.50
2023-04-30T10:41:22.145Z,1.60
2023-04-30T10:44:22.920Z,2.13
2023-04-30T10:47:19.935Z,1.77
2023-04-30T10:50:17.318Z,1.77
2023-04-30T10:53:17.615Z,1.92
2023-04-30T10:56:14.449Z,1.83
2023-04-30T10:59:12.491Z,1.75
2023-04-30T11:02:11.707Z,1.85
2023-04-30T11:05:13.376Z,2.47
2023-04-30T11:08:13.297Z,2.05
2023-04-30T11:11:11.241Z,2.03
2023-04-30T11:14:08.217Z,2.13
2023-04-30T11:17:05.077Z,2.03
2023-04-30T11:20:02.290Z,2.17
2023-04-30T11:23:22.078Z,1.30
2023-04-30T11:26:26.939Z,1.60
2023-04-30T11:29:24.652Z,1.90
2023-04-30T11:32:24.532Z,1.73
2023-04-30T11:35:21.458Z,1.67
2023-04-30T11:38:25.516Z,1.20
2023-04-30T11:41:23.337Z,1.30
2023-04-30T11:44:27.004Z,1.80
2023-04-30T11:47:23.943Z,1.70
2023-04-30T11:50:30.077Z,1.55
2023-04-30T11:53:31.028Z,1.52
2023-04-30T11:56:28.088Z,1.02
2023-04-30T11:59:24.912Z,0.90
2023-04-30T12:02:22.088Z,0.98
2023-04-30T12:05:25.090Z,1.27
2023-04-30T12:08:22.042Z,1.00
2023-04-30T12:11:28.469Z,1.27
2023-04-30T12:14:26.113Z,1.08
2023-04-30T12:17:34.701Z,0.80
2023-04-30T12:20:32.476Z,1.00
2023-04-30T12:23:29.401Z,1.13
2023-04-30T12:26:39.854Z,1.05
2023-04-30T12:29:45.580Z,0.55
2023-04-30T12:32:45.192Z,1.45
2023-04-30T12:35:43.637Z,0.87
2023-04-30T12:38:47.296Z,1.00
2023-04-30T12:41:49.668Z,0.95
2023-04-30T12:44:46.660Z,0.82
2023-04-30T12:47:43.680Z,0.60
2023-04-30T12:50:41.009Z,0.60
2023-04-30T12:53:47.252Z,0.60
2023-04-30T12:57:06.911Z,0.63
2023-04-30T13:00:05.579Z,0.63
2023-04-30T13:03:02.488Z,0.30
2023-04-30T13:06:01.688Z,0.68
2023-04-30T13:08:59.172Z,0.50
2023-04-30T13:11:56.224Z,0.65
2023-04-30T13:14:53.013Z,0.55
2023-04-30T13:17:49.956Z,0.40
2023-04-30T13:20:46.838Z,0.50
2023-04-30T13:23:51.827Z,0.40
2023-04-30T13:26:50.122Z,0.50
2023-04-30T13:29:47.227Z,0.35
2023-04-30T13:32:45.626Z,0.50
2023-04-30T13:35:42.545Z,0.40
2023-04-30T13:38:39.537Z,0.35
2023-04-30T13:41:36.657Z,0.57
2023-04-30T13:44:33.820Z,0.20
2023-04-30T13:47:30.710Z,0.40
2023-04-30T13:50:27.535Z,0.30
2023-04-30T13:53:24.426Z,0.40
2023-04-30T13:56:21.379Z,0.28
2023-04-30T13:59:18.917Z,0.38
2023-04-30T14:02:15.989Z,0.30
2023-04-30T14:05:12.793Z,0.38
2023-04-30T14:08:09.654Z,0.43
2023-04-30T14:11:06.764Z,0.30
2023-04-30T14:14:03.885Z,0.30
2023-04-30T14:17:01.975Z,0.50
2023-04-30T14:19:59.218Z,0.40
2023-04-30T14:22:56.432Z,0.60
2023-04-30T14:25:54.097Z,0.30
2023-04-30T14:28:51.112Z,0.32
2023-04-30T14:31:48.230Z,0.30
2023-04-30T14:34:45.227Z,0.30
2023-04-30T14:37:42.053Z,0.30
2023-04-30T14:40:38.902Z,0.30
2023-04-30T14:43:35.760Z,1.50
2023-04-30T14:46:33.656Z,0.50
2023-04-30T14:49:31.267Z,0.20
2023-04-30T14:52:28.234Z,0.40
2023-04-30T14:55:25.098Z,0.50
2023-04-30T14:58:22.279Z,0.82
2023-04-30T15:01:19.172Z,0.47
2023-04-30T15:04:16.107Z,0.75
2023-04-30T15:07:13.225Z,0.82
2023-04-30T15:10:10.938Z,0.77
2023-04-30T15:13:07.984Z,1.45
2023-04-30T15:16:05.847Z,1.50
2023-04-30T15:19:03.751Z,0.95
2023-04-30T15:22:00.579Z,0.75
2023-04-30T15:24:57.784Z,1.30
2023-04-30T15:27:55.228Z,0.70
2023-04-30T15:30:55.178Z,0.90
2023-04-30T15:33:52.236Z,1.15
2023-04-30T15:36:50.066Z,0.73
2023-04-30T15:39:48.398Z,0.70
2023-04-30T15:42:47.251Z,0.90
2023-04-30T15:45:45.927Z,0.77
2023-04-30T15:48:42.799Z,0.70
2023-04-30T15:51:39.596Z,1.10
2023-04-30T15:54:36.400Z,1.85
2023-04-30T15:57:33.237Z,1.20
2023-04-30T16:00:30.448Z,1.20
2023-04-30T16:03:27.525Z,1.10
2023-04-30T16:06:24.711Z,0.80
2023-04-30T16:09:21.790Z,1.05
2023-04-30T16:12:18.638Z,0.90
2023-04-30T16:15:15.490Z,2.47
2023-04-30T16:18:12.462Z,12.73
2023-04-30T16:21:13.055Z,4.45
2023-04-30T16:24:10.420Z,3.00
2023-04-30T16:27:08.378Z,5.68
2023-04-30T16:30:06.496Z,19.40
2023-04-30T16:33:03.408Z,7.38
2023-04-30T16:36:00.639Z,5.40
2023-04-30T16:38:57.568Z,5.43
2023-04-30T16:41:55.031Z,5.07
2023-04-30T16:44:51.847Z,3.58
2023-04-30T16:47:49.465Z,15.40
2023-04-30T16:50:46.398Z,4.10
2023-04-30T16:53:43.696Z,5.30
2023-04-30T16:56:40.567Z,11.65
2023-04-30T16:59:37.587Z,7.18
2023-04-30T17:02:34.944Z,12.93
2023-04-30T17:05:31.964Z,7.43
2023-04-30T17:08:28.892Z,3.15
2023-04-30T17:11:25.793Z,2.05
2023-04-30T17:14:22.946Z,7.18
2023-04-30T17:17:19.853Z,13.25
2023-04-30T17:20:16.777Z,4.63
2023-04-30T17:23:13.607Z,3.53
2023-04-30T17:26:10.518Z,1.50
2023-04-30T17:29:07.510Z,4.65
2023-04-30T17:32:04.515Z,2.03
2023-04-30T17:35:02.746Z,1.63
2023-04-30T17:38:00.488Z,3.60
2023-04-30T17:40:57.749Z,1.70
2023-04-30T17:43:54.625Z,1.75
2023-04-30T17:46:51.700Z,3.47
2023-04-30T17:49:49.058Z,3.20
2023-04-30T17:52:46.715Z,2.58
2023-04-30T17:55:43.599Z,3.70
2023-04-30T17:58:40.430Z,3.10
2023-04-30T18:01:38.102Z,2.08
2023-04-30T18:04:35.071Z,2.55
2023-04-30T18:07:31.886Z,2.20
2023-04-30T18:10:29.016Z,2.67
2023-04-30T18:13:27.410Z,2.45
2023-04-30T18:16:24.802Z,3.03
2023-04-30T18:19:22.171Z,2.97
2023-04-30T18:22:19.559Z,2.97
2023-04-30T18:25:18.610Z,2.30
2023-04-30T18:28:15.790Z,2.50
2023-04-30T18:31:12.810Z,3.03
2023-04-30T18:34:09.832Z,3.05
2023-04-30T18:37:06.720Z,3.30
2023-04-30T18:40:04.921Z,3.58
2023-04-30T18:43:01.785Z,3.40
2023-04-30T18:45:59.004Z,3.83
2023-04-30T18:48:56.621Z,5.53
2023-04-30T18:51:55.231Z,3.45
2023-04-30T18:54:52.204Z,3.22
2023-04-30T18:57:50.596Z,3.85
2023-04-30T19:00:47.490Z,3.80
2023-04-30T19:03:44.590Z,3.78
2023-04-30T19:06:42.590Z,3.85
2023-04-30T19:09:39.747Z,3.40
2023-04-30T19:12:36.956Z,3.45
2023-04-30T19:15:33.773Z,3.70
2023-04-30T19:18:30.609Z,3.72
2023-04-30T19:21:28.470Z,3.92
2023-04-30T19:24:25.331Z,3.50
2023-04-30T19:27:22.185Z,3.53
2023-04-30T19:30:18.994Z,3.17
2023-04-30T19:33:15.905Z,3.20
2023-04-30T19:36:13.299Z,3.42
2023-04-30T19:39:13.005Z,2.67
2023-04-30T19:42:10.053Z,3.20
2023-04-30T19:45:09.590Z,3.85
2023-04-30T19:48:06.838Z,3.03
2023-04-30T19:51:04.927Z,3.20
2023-04-30T19:54:01.737Z,2.80
2023-04-30T19:56:58.596Z,3.17
2023-04-30T19:59:55.738Z,3.20
2023-04-30T20:02:52.849Z,2.70
2023-04-30T20:05:49.794Z,2.63
2023-04-30T20:08:46.619Z,2.25
2023-04-30T20:11:49.330Z,2.58
2023-04-30T20:14:46.163Z,2.40
2023-04-30T20:17:43.027Z,2.50
2023-04-30T20:20:39.856Z,3.00
2023-04-30T20:23:39.408Z,2.70
2023-04-30T20:26:36.665Z,3.25
2023-04-30T20:29:33.482Z,2.47
2023-04-30T20:32:31.306Z,3.05
2023-04-30T20:35:28.139Z,3.55
2023-04-30T20:38:25.024Z,3.15
2023-04-30T20:41:22.531Z,2.90
2023-04-30T20:44:19.346Z,3.17
2023-04-30T20:47:16.229Z,3.65
2023-04-30T20:50:14.868Z,3.97
2023-04-30T20:53:12.417Z,2.92
2023-04-30T20:56:09.299Z,4.25
2023-04-30T20:59:06.147Z,3.83
2023-04-30T21:02:04.273Z,5.05
2023-04-30T21:05:05.471Z,7.55
2023-04-30T21:08:02.342Z,6.00
2023-04-30T21:10:59.209Z,4.93
2023-04-30T21:13:57.064Z,3.85
2023-04-30T21:16:53.921Z,4.32
2023-04-30T21:19:50.796Z,4.50
2023-04-30T21:22:47.883Z,5.20
2023-04-30T21:25:44.682Z,7.45
2023-04-30T21:28:41.700Z,5.20
2023-04-30T21:31:38.583Z,4.47
2023-04-30T21:34:35.447Z,4.88
2023-04-30T21:37:32.265Z,4.45
2023-04-30T21:40:33.520Z,5.18
2023-04-30T21:43:30.393Z,5.72
2023-04-30T21:46:27.384Z,4.57
2023-04-30T21:49:24.317Z,4.05
2023-04-30T21:52:21.120Z,4.95
2023-04-30T21:55:18.047Z,4.47
2023-04-30T21:58:14.965Z,4.38
2023-04-30T22:01:12.262Z,4.88
2023-04-30T22:04:09.185Z,5.20
2023-04-30T22:07:06.027Z,6.00
2023-04-30T22:10:05.090Z,5.55
2023-04-30T22:13:01.997Z,4.93
2023-04-30T22:15:58.859Z,5.07
2023-04-30T22:18:58.593Z,5.05
2023-04-30T22:21:55.916Z,5.53
2023-04-30T22:24:52.978Z,5.30
2023-04-30T22:27:49.947Z,5.18
2023-04-30T22:30:46.998Z,5.03
2023-04-30T22:33:44.614Z,4.75
2023-04-30T22:36:41.441Z,4.22
2023-04-30T22:39:38.987Z,4.25
2023-04-30T22:42:35.972Z,4.50
2023-04-30T22:45:36.869Z,4.53
2023-04-30T22:48:34.315Z,4.50
2023-04-30T22:51:31.725Z,4.72
2023-04-30T22:54:28.860Z,4.10
2023-04-30T22:57:26.220Z,4.55
2023-04-30T23:00:23.956Z,4.35
2023-04-30T23:03:21.183Z,4.45
2023-04-30T23:06:18.031Z,4.80
2023-04-30T23:09:15.889Z,4.25
2023-04-30T23:12:12.851Z,4.07
2023-04-30T23:15:10.194Z,4.57
2023-04-30T23:18:07.068Z,4.03
2023-04-30T23:21:03.970Z,4.35
2023-04-30T23:24:01.473Z,4.05
2023-04-30T23:26:58.283Z,4.47
2023-04-30T23:29:56.176Z,4.03
2023-04-30T23:32:53.406Z,4.82
2023-04-30T23:35:52.533Z,4.35
2023-04-30T23:38:49.829Z,3.60
2023-04-30T23:41:46.675Z,4.43
2023-04-30T23:44:43.527Z,4.50
2023-04-30T23:47:40.365Z,4.13
2023-04-30T23:50:40.056Z,5.22
2023-04-30T23:53:36.867Z,5.97
2023-04-30T23:56:33.943Z,7.72
2023-04-30T23:59:30.746Z,8.73
